Carrot River, Canada
Current Conditions -  °F | °C
As of 2:00 PM on Thursday 23 Oct 2014 (Local Time) from CYBU Reporting Station
Overcast Overcast  
Wind Chill: 44°   Ceiling: 700
Heat Index: 48°   Visibility: 9mi
Dew Point: 46°   Wind: 9mph
Humidity: 93%   Direction: 90°E
Pressure: 29.63"   Gusts: NA
Location:  53.28°N, 103.58°W
Report Text: CYBU 232000Z AUTO 09008KT 9SM OVC007 09/08 A2963 RMK PRESFR SLP044
Loading
Personal Weather Stations






























Interactive Weather Map
Tropical Storm Tracking
New forecast layout! Learn more

10-Day Weather Forecast

Advertisements
Track Severe Weather on mobile